Time,TemperatureF,DewpointF,PressureIn,WindDirection,WindDirectionDegrees,WindSpeedMPH,WindSpeedGustMPH,Humidity,HourlyPrecipIn,Conditions,Clouds,dailyrainin,SoftwareType,DateUTC
2013-05-13 00:01:00,47.9,31.6,29.82,SW,236,0.6,2.3,53,0.00,CLR,,0.00,WeatherDisplay:10.37,2013-05-13 04:01:00,
2013-05-13 00:03:00,47.9,31.6,29.82,SW,234,2.1,3.5,53,0.00,CLR,,0.00,WeatherDisplay:10.37,2013-05-13 04:03:00,
2013-05-13 00:08:00,47.7,32.3,29.82,NNW,329,1.1,3.5,55,0.00,CLR,,0.00,WeatherDisplay:10.37,2013-05-13 04:08:00,
2013-05-13 00:14:00,47.4,31.6,29.82,West,268,2.9,6.0,54,0.00,CLR,,0.00,WeatherDisplay:10.37,2013-05-13 04:14:00,
2013-05-13 00:19:00,47.4,31.6,29.82,West,264,0.5,2.3,54,0.00,CLR,,0.00,WeatherDisplay:10.37,2013-05-13 04:19:00,
2013-05-13 00:24:00,47.3,31.5,29.83,West,269,0.3,2.3,54,0.00,CLR,,0.00,WeatherDisplay:10.37,2013-05-13 04:24:00,
2013-05-13 00:29:00,47.1,31.7,29.83,West,268,0.2,1.1,55,0.00,CLR,,0.00,WeatherDisplay:10.37,2013-05-13 04:29:00,
2013-05-13 00:34:00,47.0,32.1,29.83,West,268,0.1,2.3,56,0.00,CLR,,0.00,WeatherDisplay:10.37,2013-05-13 04:34:00,
2013-05-13 00:39:00,46.7,32.3,29.83,West,269,0.2,1.1,57,0.00,CLR,,0.00,WeatherDisplay:10.37,2013-05-13 04:39:00,
2013-05-13 00:44:00,46.5,32.5,29.83,SW,222,1.0,4.6,58,0.00,CLR,,0.00,WeatherDisplay:10.37,2013-05-13 04:44:00,
2013-05-13 00:49:00,46.4,32.4,29.83,SW,233,0.5,1.1,58,0.00,CLR,,0.00,WeatherDisplay:10.37,2013-05-13 04:49:00,
2013-05-13 00:54:00,46.2,32.7,29.83,WNW,284,0.9,2.3,59,0.00,CLR,,0.00,WeatherDisplay:10.37,2013-05-13 04:54:00,
2013-05-13 00:59:00,46.1,32.1,29.83,NW,316,1.0,3.5,58,0.00,CLR,,0.00,WeatherDisplay:10.37,2013-05-13 04:59:00,
2013-05-13 01:04:00,46.1,32.6,29.83,WNW,290,0.1,2.3,59,0.00,CLR,,0.00,WeatherDisplay:10.37,2013-05-13 05:04:00,
2013-05-13 01:10:00,46.0,32.9,29.83,SW,223,0.1,3.5,60,0.00,CLR,,0.00,WeatherDisplay:10.37,2013-05-13 05:10:00,
2013-05-13 01:15:00,45.8,33.1,29.84,NW,323,0.1,3.5,61,0.00,CLR,,0.00,WeatherDisplay:10.37,2013-05-13 05:15:00,
2013-05-13 01:20:00,45.7,33.4,29.84,WNW,294,0.6,2.3,62,0.00,CLR,,0.00,WeatherDisplay:10.37,2013-05-13 05:20:00,
2013-05-13 01:25:00,45.5,33.2,29.84,West,273,0.9,2.3,62,0.00,CLR,,0.00,WeatherDisplay:10.37,2013-05-13 05:25:00,
2013-05-13 01:30:00,45.4,33.1,29.84,SW,233,0.4,2.3,62,0.00,CLR,,0.00,WeatherDisplay:10.37,2013-05-13 05:30:00,
2013-05-13 01:35:00,45.4,33.5,29.84,WSW,258,0.5,1.1,63,0.00,CLR,,0.00,WeatherDisplay:10.37,2013-05-13 05:35:00,
2013-05-13 01:40:00,45.2,33.7,29.84,SW,221,0.8,2.3,64,0.00,CLR,,0.00,WeatherDisplay:10.37,2013-05-13 05:40:00,
2013-05-13 01:45:00,45.1,34.0,29.84,WSW,239,2.0,3.5,65,0.00,CLR,,0.00,WeatherDisplay:10.37,2013-05-13 05:45:00,
2013-05-13 01:50:00,44.9,33.8,29.84,SW,230,0.7,3.5,65,0.00,CLR,,0.00,WeatherDisplay:10.37,2013-05-13 05:50:00,
2013-05-13 01:56:00,44.9,34.2,29.84,SSW,213,2.4,5.0,66,0.00,CLR,,0.00,WeatherDisplay:10.37,2013-05-13 05:56:00,
2013-05-13 02:01:00,44.8,34.1,29.84,SW,230,0.6,3.5,66,0.00,CLR,,0.00,WeatherDisplay:10.37,2013-05-13 06:01:00,
2013-05-13 02:06:00,44.6,33.9,29.85,SW,229,0.4,1.1,66,0.00,CLR,,0.00,WeatherDisplay:10.37,2013-05-13 06:06:00,
2013-05-13 02:11:00,44.5,34.2,29.85,SSW,210,0.0,1.1,67,0.00,CLR,,0.00,WeatherDisplay:10.37,2013-05-13 06:11:00,
2013-05-13 02:16:00,44.3,33.7,29.85,SSW,210,0.1,1.1,66,0.00,CLR,,0.00,WeatherDisplay:10.37,2013-05-13 06:16:00,
2013-05-13 02:21:00,44.2,33.9,29.85,SSW,210,0.3,2.3,67,0.00,CLR,,0.00,WeatherDisplay:10.37,2013-05-13 06:21:00,
2013-05-13 02:26:00,44.1,33.5,29.85,SSW,211,1.9,2.3,66,0.00,CLR,,0.00,WeatherDisplay:10.37,2013-05-13 06:26:00,
2013-05-13 02:31:00,44.1,34.2,29.85,SSW,211,0.0,1.1,68,0.00,CLR,,0.00,WeatherDisplay:10.37,2013-05-13 06:31:00,
2013-05-13 02:36:00,43.9,34.0,29.85,West,278,2.2,6.9,68,0.00,CLR,,0.00,WeatherDisplay:10.37,2013-05-13 06:36:00,
2013-05-13 02:42:00,43.8,33.9,29.85,WSW,254,0.0,1.1,68,0.00,CLR,,0.00,WeatherDisplay:10.37,2013-05-13 06:42:00,
2013-05-13 02:47:00,43.6,34.1,29.84,WSW,254,0.0,1.1,69,0.00,CLR,,0.00,WeatherDisplay:10.37,2013-05-13 06:47:00,
2013-05-13 02:52:00,43.5,34.4,29.85,SSW,208,1.7,3.5,70,0.00,CLR,,0.00,WeatherDisplay:10.37,2013-05-13 06:52:00,
2013-05-13 02:57:00,43.2,34.1,29.85,SSW,213,0.2,1.1,70,0.00,CLR,,0.00,WeatherDisplay:10.37,2013-05-13 06:57:00,
2013-05-13 03:02:00,43.2,33.7,29.85,West,279,1.0,1.1,69,0.00,CLR,,0.00,WeatherDisplay:10.37,2013-05-13 07:02:00,
2013-05-13 03:07:00,43.1,33.6,29.85,WSW,254,1.3,3.5,69,0.00,CLR,,0.00,WeatherDisplay:10.37,2013-05-13 07:07:00,
2013-05-13 03:12:00,43.1,33.6,29.85,SW,225,0.8,2.3,69,0.00,CLR,,0.00,WeatherDisplay:10.37,2013-05-13 07:12:00,
2013-05-13 03:18:00,42.9,33.1,29.85,West,268,1.3,3.5,68,0.00,CLR,,0.00,WeatherDisplay:10.37,2013-05-13 07:18:00,
2013-05-13 03:23:00,42.9,32.7,29.85,SW,236,0.9,2.3,67,0.00,CLR,,0.00,WeatherDisplay:10.37,2013-05-13 07:23:00,
2013-05-13 03:28:00,42.9,33.1,29.85,SW,236,0.5,3.5,68,0.00,CLR,,0.00,WeatherDisplay:10.37,2013-05-13 07:28:00,
2013-05-13 03:33:00,42.9,32.7,29.85,SW,227,0.3,1.1,67,0.00,CLR,,0.00,WeatherDisplay:10.37,2013-05-13 07:33:00,
2013-05-13 03:38:00,42.8,32.6,29.85,SW,227,0.2,1.1,67,0.00,CLR,,0.00,WeatherDisplay:10.37,2013-05-13 07:38:00,
2013-05-13 03:43:00,42.6,33.1,29.85,SW,232,0.5,2.3,69,0.00,CLR,,0.00,WeatherDisplay:10.37,2013-05-13 07:43:00,
2013-05-13 03:48:00,42.5,32.7,29.85,WSW,242,0.3,1.1,68,0.00,CLR,,0.00,WeatherDisplay:10.37,2013-05-13 07:48:00,
2013-05-13 03:53:00,42.5,32.3,29.85,WSW,242,0.0,1.1,67,0.00,CLR,,0.00,WeatherDisplay:10.37,2013-05-13 07:53:00,
2013-05-13 03:59:00,42.3,32.5,29.85,WSW,242,0.1,1.1,68,0.00,CLR,,0.00,WeatherDisplay:10.37,2013-05-13 07:59:00,
2013-05-13 04:04:00,42.2,32.8,29.85,SW,221,0.9,4.6,69,0.00,CLR,,0.00,WeatherDisplay:10.37,2013-05-13 08:04:00,
2013-05-13 04:09:00,42.1,33.0,29.85,SSW,205,2.5,7.0,70,0.00,CLR,,0.00,WeatherDisplay:10.37,2013-05-13 08:09:00,
2013-05-13 04:14:00,42.1,33.7,29.85,SW,220,1.8,5.0,72,0.00,CLR,,0.00,WeatherDisplay:10.37,2013-05-13 08:14:00,
2013-05-13 04:19:00,41.9,33.2,29.85,SW,232,0.4,1.1,71,0.00,CLR,,0.00,WeatherDisplay:10.37,2013-05-13 08:19:00,
2013-05-13 04:24:00,41.9,33.2,29.85,SW,221,0.5,2.3,71,0.00,CLR,,0.00,WeatherDisplay:10.37,2013-05-13 08:24:00,
2013-05-13 04:30:00,41.8,33.1,29.85,SW,216,1.4,3.5,71,0.00,CLR,,0.00,WeatherDisplay:10.37,2013-05-13 08:30:00,
2013-05-13 04:35:00,41.8,32.7,29.85,SW,236,2.1,5.8,70,0.00,CLR,,0.00,WeatherDisplay:10.37,2013-05-13 08:35:00,
2013-05-13 04:40:00,41.6,32.9,29.86,SW,229,1.6,3.5,71,0.00,CLR,,0.00,WeatherDisplay:10.37,2013-05-13 08:40:00,
2013-05-13 04:45:00,41.6,32.5,29.86,SSW,200,1.4,3.5,70,0.00,CLR,,0.00,WeatherDisplay:10.37,2013-05-13 08:45:00,
2013-05-13 04:50:00,41.6,32.2,29.86,SW,233,1.9,4.6,69,0.00,CLR,,0.00,WeatherDisplay:10.37,2013-05-13 08:50:00,
2013-05-13 04:56:00,41.6,32.5,29.87,SW,229,0.1,2.3,70,0.00,CLR,,0.00,WeatherDisplay:10.37,2013-05-13 08:56:00,
2013-05-13 05:01:00,41.5,32.8,29.87,SW,215,1.8,4.6,71,0.00,CLR,,0.00,WeatherDisplay:10.37,2013-05-13 09:01:00,
2013-05-13 05:06:00,41.5,32.1,29.87,SW,215,0.5,2.3,69,0.00,CLR,,0.00,WeatherDisplay:10.37,2013-05-13 09:06:00,
2013-05-13 05:11:00,41.5,32.1,29.87,SW,223,2.5,3.5,69,0.00,CLR,,0.00,WeatherDisplay:10.37,2013-05-13 09:11:00,
2013-05-13 05:16:00,41.6,32.5,29.87,WSW,258,0.9,2.3,70,0.00,CLR,,0.00,WeatherDisplay:10.37,2013-05-13 09:16:00,
2013-05-13 05:21:00,41.6,32.5,29.87,SSW,211,0.9,2.3,70,0.00,CLR,,0.00,WeatherDisplay:10.37,2013-05-13 09:21:00,
2013-05-13 05:26:00,41.6,32.2,29.87,SW,232,0.3,5.8,69,0.00,CLR,,0.00,WeatherDisplay:10.37,2013-05-13 09:26:00,
2013-05-13 05:31:00,41.6,32.2,29.87,SW,233,1.7,2.3,69,0.00,CLR,,0.00,WeatherDisplay:10.37,2013-05-13 09:31:00,
2013-05-13 05:37:00,41.6,32.5,29.87,SW,215,0.3,3.5,70,0.00,CLR,,0.00,WeatherDisplay:10.37,2013-05-13 09:37:00,
2013-05-13 05:42:00,41.5,32.4,29.87,WSW,240,0.1,0.0,70,0.00,CLR,,0.00,WeatherDisplay:10.37,2013-05-13 09:42:00,
2013-05-13 05:47:00,41.3,32.2,29.88,West,271,0.3,2.3,70,0.00,CLR,,0.00,WeatherDisplay:10.37,2013-05-13 09:47:00,
2013-05-13 05:52:00,41.3,32.2,29.88,West,263,0.2,1.1,70,0.00,CLR,,0.00,WeatherDisplay:10.37,2013-05-13 09:52:00,
2013-05-13 05:58:00,41.3,32.2,29.89,WNW,301,1.0,3.0,70,0.00,CLR,,0.00,WeatherDisplay:10.37,2013-05-13 09:58:00,
2013-05-13 06:03:00,41.3,32.2,29.89,WSW,258,0.4,1.1,70,0.00,CLR,,0.00,WeatherDisplay:10.37,2013-05-13 10:03:00,
2013-05-13 06:08:00,41.3,32.6,29.89,SW,227,0.3,2.3,71,0.00,CLR,,0.00,WeatherDisplay:10.37,2013-05-13 10:08:00,
2013-05-13 06:13:00,41.3,32.2,29.89,West,262,0.0,2.3,70,0.00,CLR,,0.00,WeatherDisplay:10.37,2013-05-13 10:13:00,
2013-05-13 06:18:00,41.3,32.2,29.89,WNW,294,0.6,2.3,70,0.00,CLR,,0.00,WeatherDisplay:10.37,2013-05-13 10:18:00,
2013-05-13 06:23:00,41.5,32.4,29.90,NNW,327,0.5,1.1,70,0.00,CLR,,0.00,WeatherDisplay:10.37,2013-05-13 10:23:00,
2013-05-13 06:29:00,41.6,32.5,29.90,NNE,13,0.9,2.3,70,0.00,CLR,,0.00,WeatherDisplay:10.37,2013-05-13 10:29:00,
2013-05-13 06:34:00,41.8,32.7,29.90,WSW,243,1.0,2.3,70,0.00,CLR,,0.00,WeatherDisplay:10.37,2013-05-13 10:34:00,
2013-05-13 06:39:00,41.9,32.5,29.90,NW,307,2.5,2.5,69,0.00,CLR,,0.00,WeatherDisplay:10.37,2013-05-13 10:39:00,
2013-05-13 06:44:00,42.2,32.4,29.90,South,186,1.4,3.5,68,0.00,CLR,,0.00,WeatherDisplay:10.37,2013-05-13 10:44:00,
2013-05-13 06:49:00,42.3,32.5,29.90,WSW,257,1.7,3.5,68,0.00,CLR,,0.00,WeatherDisplay:10.37,2013-05-13 10:49:00,
2013-05-13 06:55:00,42.6,32.4,29.90,WSW,241,1.4,2.3,67,0.00,CLR,,0.00,WeatherDisplay:10.37,2013-05-13 10:55:00,
2013-05-13 07:00:00,42.9,33.1,29.90,SSW,213,3.3,9.0,68,0.00,CLR,,0.00,WeatherDisplay:10.37,2013-05-13 11:00:00,
2013-05-13 07:05:00,43.1,32.5,29.90,WSW,241,2.0,5.8,66,0.00,CLR,,0.00,WeatherDisplay:10.37,2013-05-13 11:05:00,
2013-05-13 07:10:00,43.1,33.6,29.90,SSW,212,0.5,3.5,69,0.00,CLR,,0.00,WeatherDisplay:10.37,2013-05-13 11:10:00,
2013-05-13 07:15:00,43.2,33.0,29.90,WSW,244,1.2,3.5,67,0.00,CLR,,0.00,WeatherDisplay:10.37,2013-05-13 11:15:00,
2013-05-13 07:20:00,43.2,33.0,29.90,WSW,249,1.0,9.2,67,0.00,CLR,,0.00,WeatherDisplay:10.37,2013-05-13 11:20:00,
2013-05-13 07:25:00,43.3,33.1,29.90,West,270,1.8,5.8,67,0.00,CLR,,0.00,WeatherDisplay:10.37,2013-05-13 11:25:00,
2013-05-13 07:31:00,43.5,30.9,29.91,WSW,250,2.2,9.0,61,0.00,CLR,,0.00,WeatherDisplay:10.37,2013-05-13 11:31:00,
2013-05-13 07:36:00,43.6,30.2,29.91,West,272,4.0,15.0,59,0.00,CLR,,0.00,WeatherDisplay:10.37,2013-05-13 11:36:00,
2013-05-13 07:41:00,43.8,29.5,29.91,NW,322,3.6,9.2,57,0.00,CLR,,0.00,WeatherDisplay:10.37,2013-05-13 11:41:00,
2013-05-13 07:46:00,43.9,29.6,29.92,WSW,244,2.9,5.8,57,0.00,CLR,,0.00,WeatherDisplay:10.37,2013-05-13 11:46:00,
2013-05-13 07:52:00,44.1,29.8,29.92,West,267,1.0,4.6,57,0.00,CLR,,0.00,WeatherDisplay:10.37,2013-05-13 11:52:00,
2013-05-13 07:57:00,44.2,29.0,29.92,WNW,292,2.2,5.8,55,0.00,CLR,,0.00,WeatherDisplay:10.37,2013-05-13 11:57:00,
2013-05-13 08:02:00,44.5,29.8,29.93,West,279,0.6,6.9,56,0.00,CLR,,0.00,WeatherDisplay:10.37,2013-05-13 12:02:00,
2013-05-13 08:07:00,44.6,29.0,29.93,SW,229,2.3,4.6,54,0.00,CLR,,0.00,WeatherDisplay:10.37,2013-05-13 12:07:00,
2013-05-13 08:12:00,44.6,28.5,29.93,WSW,252,3.5,9.2,53,0.00,CLR,,0.00,WeatherDisplay:10.37,2013-05-13 12:12:00,
2013-05-13 08:18:00,44.6,27.6,29.93,NW,311,2.5,5.8,51,0.00,CLR,,0.00,WeatherDisplay:10.37,2013-05-13 12:18:00,
2013-05-13 08:23:00,44.8,29.2,29.93,WNW,294,3.9,9.2,54,0.00,CLR,,0.00,WeatherDisplay:10.37,2013-05-13 12:23:00,
2013-05-13 08:28:00,44.8,28.2,29.93,NW,309,6.5,12.7,52,0.00,CLR,,0.00,WeatherDisplay:10.37,2013-05-13 12:28:00,
2013-05-13 08:33:00,44.8,28.2,29.93,WNW,302,2.8,3.5,52,0.00,CLR,,0.00,WeatherDisplay:10.37,2013-05-13 12:33:00,
2013-05-13 08:38:00,45.1,28.5,29.93,West,278,2.5,4.6,52,0.00,CLR,,0.00,WeatherDisplay:10.37,2013-05-13 12:38:00,
2013-05-13 08:43:00,45.2,28.6,29.93,NW,315,3.9,6.9,52,0.00,CLR,,0.00,WeatherDisplay:10.37,2013-05-13 12:43:00,
2013-05-13 08:49:00,45.4,28.8,29.93,West,279,3.8,6.9,52,0.00,CLR,,0.00,WeatherDisplay:10.37,2013-05-13 12:49:00,
2013-05-13 08:54:00,45.5,27.9,29.93,SSW,194,5.6,12.7,50,0.00,CLR,,0.00,WeatherDisplay:10.37,2013-05-13 12:54:00,
2013-05-13 08:59:00,45.5,27.9,29.93,West,263,6.4,9.2,50,0.00,CLR,,0.00,WeatherDisplay:10.37,2013-05-13 12:59:00,
2013-05-13 09:04:00,46.0,28.9,29.94,WSW,254,3.1,8.1,51,0.00,CLR,,0.00,WeatherDisplay:10.37,2013-05-13 13:04:00,
2013-05-13 09:09:00,46.1,27.5,29.94,WSW,257,2.4,4.6,48,0.00,CLR,,0.00,WeatherDisplay:10.37,2013-05-13 13:09:00,
2013-05-13 09:15:00,46.4,28.3,29.94,WSW,250,2.9,5.8,49,0.00,CLR,,0.00,WeatherDisplay:10.37,2013-05-13 13:15:00,
2013-05-13 09:20:00,47.0,28.3,29.94,West,269,5.4,13.8,48,0.00,CLR,,0.00,WeatherDisplay:10.37,2013-05-13 13:20:00,
2013-05-13 09:25:00,46.7,28.5,29.94,West,263,3.1,10.4,49,0.00,CLR,,0.00,WeatherDisplay:10.37,2013-05-13 13:25:00,
2013-05-13 09:30:00,47.0,27.8,29.95,West,279,5.6,15.0,47,0.00,CLR,,0.00,WeatherDisplay:10.37,2013-05-13 13:30:00,
2013-05-13 09:35:00,47.7,29.5,29.95,SSW,212,3.8,11.5,49,0.00,CLR,,0.00,WeatherDisplay:10.37,2013-05-13 13:35:00,
2013-05-13 09:40:00,48.2,28.4,29.95,West,267,3.9,6.9,46,0.00,CLR,,0.00,WeatherDisplay:10.37,2013-05-13 13:40:00,
2013-05-13 09:46:00,48.8,30.0,29.95,WNW,298,3.7,6.9,48,0.00,CLR,,0.00,WeatherDisplay:10.37,2013-05-13 13:46:00,
2013-05-13 09:51:00,49.5,29.0,29.94,West,260,3.6,9.2,45,0.00,CLR,,0.00,WeatherDisplay:10.37,2013-05-13 13:51:00,
2013-05-13 09:56:00,49.5,29.6,29.94,SSW,198,2.2,9.0,46,0.00,CLR,,0.00,WeatherDisplay:10.37,2013-05-13 13:56:00,
2013-05-13 10:01:00,49.6,28.6,29.94,West,263,3.8,6.9,44,0.00,CLR,,0.00,WeatherDisplay:10.37,2013-05-13 14:01:00,
2013-05-13 10:06:00,50.1,31.2,29.94,NNW,338,1.6,2.3,48,0.00,CLR,,0.00,WeatherDisplay:10.37,2013-05-13 14:06:00,
2013-05-13 10:12:00,50.4,28.7,29.95,WNW,288,0.5,2.3,43,0.00,CLR,,0.00,WeatherDisplay:10.37,2013-05-13 14:12:00,
2013-05-13 10:17:00,50.1,28.4,29.94,West,279,5.1,11.5,43,0.00,CLR,,0.00,WeatherDisplay:10.37,2013-05-13 14:17:00,
2013-05-13 10:22:00,49.8,28.2,29.94,WNW,292,5.3,8.1,43,0.00,CLR,,0.00,WeatherDisplay:10.37,2013-05-13 14:22:00,
2013-05-13 10:27:00,50.1,32.7,29.94,SSW,195,3.9,6.9,51,0.00,CLR,,0.00,WeatherDisplay:10.37,2013-05-13 14:27:00,
2013-05-13 10:32:00,50.2,28.5,29.95,West,275,6.3,11.5,43,0.00,CLR,,0.00,WeatherDisplay:10.37,2013-05-13 14:32:00,
2013-05-13 10:37:00,50.1,29.0,29.95,West,278,3.6,11.5,44,0.00,CLR,,0.00,WeatherDisplay:10.37,2013-05-13 14:37:00,
2013-05-13 10:42:00,50.4,28.7,29.95,NNW,335,5.2,6.9,43,0.00,CLR,,0.00,WeatherDisplay:10.37,2013-05-13 14:42:00,
2013-05-13 10:47:00,51.0,29.3,29.95,West,281,6.6,9.0,43,0.00,CLR,,0.00,WeatherDisplay:10.37,2013-05-13 14:47:00,
2013-05-13 10:52:00,50.4,30.4,29.95,NW,308,4.7,11.5,46,0.00,CLR,,0.00,WeatherDisplay:10.37,2013-05-13 14:52:00,
2013-05-13 10:57:00,50.1,27.9,29.95,NW,305,3.4,5.8,42,0.00,CLR,,0.00,WeatherDisplay:10.37,2013-05-13 14:57:00,
2013-05-13 11:02:00,50.5,27.7,29.95,WSW,241,5.7,10.4,41,0.00,CLR,,0.00,WeatherDisplay:10.37,2013-05-13 15:02:00,
2013-05-13 11:08:00,51.9,31.2,29.95,NW,321,3.6,4.0,45,0.00,CLR,,0.00,WeatherDisplay:10.37,2013-05-13 15:08:00,
2013-05-13 11:13:00,52.9,28.6,29.95,WNW,294,5.0,10.4,39,0.00,CLR,,0.00,WeatherDisplay:10.37,2013-05-13 15:13:00,
2013-05-13 11:18:00,52.5,30.0,29.95,WNW,294,3.3,4.6,42,0.00,CLR,,0.00,WeatherDisplay:10.37,2013-05-13 15:18:00,
2013-05-13 11:23:00,52.8,33.1,29.95,North,349,3.0,6.9,47,0.00,CLR,,0.00,WeatherDisplay:10.37,2013-05-13 15:23:00,
2013-05-13 11:28:00,52.3,30.4,29.95,WNW,288,4.5,10.0,43,0.00,CLR,,0.00,WeatherDisplay:10.37,2013-05-13 15:28:00,
2013-05-13 11:33:00,51.4,31.3,29.95,West,278,5.8,11.5,46,0.00,CLR,,0.00,WeatherDisplay:10.37,2013-05-13 15:33:00,
2013-05-13 11:38:00,51.3,29.0,29.95,WNW,303,4.2,8.1,42,0.00,CLR,,0.00,WeatherDisplay:10.37,2013-05-13 15:38:00,
2013-05-13 11:43:00,51.6,30.4,29.95,WNW,294,2.4,7.0,44,0.00,CLR,,0.00,WeatherDisplay:10.37,2013-05-13 15:43:00,
2013-05-13 11:49:00,51.3,29.0,29.95,West,265,1.0,2.3,42,0.00,CLR,,0.00,WeatherDisplay:10.37,2013-05-13 15:49:00,
2013-05-13 11:54:00,51.4,30.7,29.95,WSW,248,4.5,11.5,45,0.00,CLR,,0.00,WeatherDisplay:10.37,2013-05-13 15:54:00,
2013-05-13 11:59:00,52.2,29.8,29.95,West,274,4.6,6.9,42,0.00,CLR,,0.00,WeatherDisplay:10.37,2013-05-13 15:59:00,
2013-05-13 12:04:00,51.3,27.8,29.95,WSW,240,3.1,4.6,40,0.00,CLR,,0.00,WeatherDisplay:10.37,2013-05-13 16:04:00,
2013-05-13 12:09:00,50.2,27.4,29.95,SW,234,6.1,6.1,41,0.00,CLR,,0.00,WeatherDisplay:10.37,2013-05-13 16:09:00,
2013-05-13 12:14:00,50.2,28.5,29.95,North,355,2.0,3.5,43,0.00,CLR,,0.00,WeatherDisplay:10.37,2013-05-13 16:14:00,
2013-05-13 12:20:00,51.0,30.4,29.95,WNW,291,1.8,4.6,45,0.00,CLR,,0.00,WeatherDisplay:10.37,2013-05-13 16:20:00,
2013-05-13 12:25:00,51.1,30.5,29.95,WNW,300,3.3,6.9,45,0.00,CLR,,0.00,WeatherDisplay:10.37,2013-05-13 16:25:00,
2013-05-13 12:30:00,51.0,28.1,29.95,SW,225,1.2,3.5,41,0.00,CLR,,0.00,WeatherDisplay:10.37,2013-05-13 16:30:00,
2013-05-13 12:35:00,51.0,28.1,29.95,West,278,6.3,11.5,41,0.00,CLR,,0.00,WeatherDisplay:10.37,2013-05-13 16:35:00,
2013-05-13 12:40:00,51.0,29.8,29.95,SW,223,2.5,5.0,44,0.00,CLR,,0.00,WeatherDisplay:10.37,2013-05-13 16:40:00,
2013-05-13 12:46:00,51.4,31.8,29.95,WNW,300,3.3,4.6,47,0.00,CLR,,0.00,WeatherDisplay:10.37,2013-05-13 16:46:00,
2013-05-13 12:51:00,51.9,28.9,29.96,West,279,4.4,9.2,41,0.00,CLR,,0.00,WeatherDisplay:10.37,2013-05-13 16:51:00,
2013-05-13 12:56:00,51.4,27.9,29.95,WNW,298,2.2,5.8,40,0.00,CLR,,0.00,WeatherDisplay:10.37,2013-05-13 16:56:00,
2013-05-13 13:01:00,51.1,29.9,29.95,West,259,2.8,6.9,44,0.00,CLR,,0.00,WeatherDisplay:10.37,2013-05-13 17:01:00,
2013-05-13 13:07:00,50.7,27.8,29.95,NW,309,6.2,10.4,41,0.00,CLR,,0.00,WeatherDisplay:10.37,2013-05-13 17:07:00,
2013-05-13 13:12:00,50.8,30.2,29.96,NW,306,1.6,3.5,45,0.00,CLR,,0.00,WeatherDisplay:10.37,2013-05-13 17:12:00,
2013-05-13 13:17:00,51.6,30.4,29.95,SW,234,0.3,1.1,44,0.00,CLR,,0.00,WeatherDisplay:10.37,2013-05-13 17:17:00,
2013-05-13 13:22:00,52.0,28.4,29.95,WNW,300,3.7,9.2,40,0.00,CLR,,0.00,WeatherDisplay:10.37,2013-05-13 17:22:00,
2013-05-13 13:27:00,52.2,29.8,29.95,West,274,3.6,6.9,42,0.00,CLR,,0.00,WeatherDisplay:10.37,2013-05-13 17:27:00,
2013-05-13 13:32:00,52.3,28.7,29.95,SSW,207,2.4,9.2,40,0.00,CLR,,0.00,WeatherDisplay:10.37,2013-05-13 17:32:00,
2013-05-13 13:38:00,51.9,28.3,29.95,WNW,288,2.3,4.6,40,0.00,CLR,,0.00,WeatherDisplay:10.37,2013-05-13 17:38:00,
2013-05-13 13:43:00,51.6,27.4,29.95,South,191,4.6,9.2,39,0.00,CLR,,0.00,WeatherDisplay:10.37,2013-05-13 17:43:00,
2013-05-13 13:48:00,51.0,29.8,29.95,SW,231,1.1,2.3,44,0.00,CLR,,0.00,WeatherDisplay:10.37,2013-05-13 17:48:00,
2013-05-13 13:53:00,51.1,28.2,29.95,WNW,290,1.1,4.6,41,0.00,CLR,,0.00,WeatherDisplay:10.37,2013-05-13 17:53:00,
2013-05-13 13:58:00,51.9,28.9,29.95,West,276,4.6,9.2,41,0.00,CLR,,0.00,WeatherDisplay:10.37,2013-05-13 17:58:00,
2013-05-13 14:03:00,52.2,28.6,29.95,SW,218,5.2,7.0,40,0.00,CLR,,0.00,WeatherDisplay:10.37,2013-05-13 18:03:00,
2013-05-13 14:08:00,51.9,29.5,29.95,WSW,249,3.2,11.5,42,0.00,CLR,,0.00,WeatherDisplay:10.37,2013-05-13 18:08:00,
2013-05-13 14:14:00,52.6,32.4,29.95,WNW,284,3.9,9.2,46,0.00,CLR,,0.00,WeatherDisplay:10.37,2013-05-13 18:14:00,
2013-05-13 14:19:00,53.5,29.1,29.95,WNW,290,8.5,13.8,39,0.00,CLR,,0.00,WeatherDisplay:10.37,2013-05-13 18:19:00,
2013-05-13 14:24:00,53.8,30.6,29.95,West,275,2.9,3.5,41,0.00,CLR,,0.00,WeatherDisplay:10.37,2013-05-13 18:24:00,
2013-05-13 14:29:00,54.1,29.0,29.95,WSW,238,2.4,4.6,38,0.00,CLR,,0.00,WeatherDisplay:10.37,2013-05-13 18:29:00,
2013-05-13 14:34:00,52.9,28.0,29.95,WSW,254,3.1,4.6,38,0.00,CLR,,0.00,WeatherDisplay:10.37,2013-05-13 18:34:00,
2013-05-13 14:39:00,52.3,29.3,29.95,WNW,300,3.8,12.0,41,0.00,CLR,,0.00,WeatherDisplay:10.37,2013-05-13 18:39:00,
2013-05-13 14:45:00,52.2,30.9,29.95,SSW,204,1.3,3.5,44,0.00,CLR,,0.00,WeatherDisplay:10.37,2013-05-13 18:45:00,
2013-05-13 14:50:00,52.6,31.3,29.95,NW,317,6.2,10.4,44,0.00,CLR,,0.00,WeatherDisplay:10.37,2013-05-13 18:50:00,
2013-05-13 14:55:00,53.1,30.0,29.95,West,265,3.0,4.0,41,0.00,CLR,,0.00,WeatherDisplay:10.37,2013-05-13 18:55:00,
2013-05-13 15:00:00,53.6,30.4,29.95,West,279,5.8,13.8,41,0.00,CLR,,0.00,WeatherDisplay:10.37,2013-05-13 19:00:00,
2013-05-13 15:05:00,53.1,28.8,29.95,West,269,7.8,11.5,39,0.00,CLR,,0.00,WeatherDisplay:10.37,2013-05-13 19:05:00,
2013-05-13 15:10:00,52.5,28.8,29.95,WNW,291,4.1,6.9,40,0.00,CLR,,0.00,WeatherDisplay:10.37,2013-05-13 19:10:00,
2013-05-13 15:16:00,52.2,29.2,29.94,West,268,5.4,5.4,41,0.00,CLR,,0.00,WeatherDisplay:10.37,2013-05-13 19:16:00,
2013-05-13 15:21:00,52.0,29.6,29.95,West,268,2.6,3.5,42,0.00,CLR,,0.00,WeatherDisplay:10.37,2013-05-13 19:21:00,
2013-05-13 15:26:00,52.2,30.4,29.95,WSW,254,4.3,6.9,43,0.00,CLR,,0.00,WeatherDisplay:10.37,2013-05-13 19:26:00,
2013-05-13 15:31:00,51.6,29.8,29.95,NW,308,7.9,11.5,43,0.00,CLR,,0.00,WeatherDisplay:10.37,2013-05-13 19:31:00,
2013-05-13 15:36:00,51.6,29.8,29.94,WSW,252,3.1,6.9,43,0.00,CLR,,0.00,WeatherDisplay:10.37,2013-05-13 19:36:00,
2013-05-13 15:41:00,52.2,30.9,29.94,West,279,5.4,5.8,44,0.00,CLR,,0.00,WeatherDisplay:10.37,2013-05-13 19:41:00,
2013-05-13 15:47:00,52.2,30.4,29.94,WSW,249,2.6,5.8,43,0.00,CLR,,0.00,WeatherDisplay:10.37,2013-05-13 19:47:00,
2013-05-13 15:52:00,51.9,30.1,29.94,West,273,1.3,4.6,43,0.00,CLR,,0.00,WeatherDisplay:10.37,2013-05-13 19:52:00,
2013-05-13 15:59:00,51.6,30.9,29.94,NW,316,5.9,6.0,45,0.00,CLR,,0.00,WeatherDisplay:10.37,2013-05-13 19:59:00,
2013-05-13 16:04:00,51.3,29.5,29.94,WNW,299,5.2,9.2,43,0.00,CLR,,0.00,WeatherDisplay:10.37,2013-05-13 20:04:00,
2013-05-13 16:12:00,50.7,30.7,29.94,WNW,286,0.0,9.2,46,0.00,CLR,,0.00,WeatherDisplay:10.37,2013-05-13 20:12:00,
2013-05-13 16:17:00,51.3,32.3,29.94,WSW,245,2.9,8.1,48,0.00,CLR,,0.00,WeatherDisplay:10.37,2013-05-13 20:17:00,
2013-05-13 16:23:00,52.8,30.3,29.94,NW,324,2.8,16.1,42,0.00,CLR,,0.00,WeatherDisplay:10.37,2013-05-13 20:23:00,
2013-05-13 16:28:00,53.6,31.6,29.94,NW,309,3.7,5.8,43,0.00,CLR,,0.00,WeatherDisplay:10.37,2013-05-13 20:28:00,
2013-05-13 16:33:00,53.8,30.6,29.94,WSW,256,9.1,13.8,41,0.00,CLR,,0.00,WeatherDisplay:10.37,2013-05-13 20:33:00,
2013-05-13 16:38:00,53.5,30.4,29.93,West,269,3.1,4.6,41,0.00,CLR,,0.00,WeatherDisplay:10.37,2013-05-13 20:38:00,
2013-05-13 16:43:00,53.3,29.6,29.93,West,266,6.8,10.4,40,0.00,CLR,,0.00,WeatherDisplay:10.37,2013-05-13 20:43:00,
2013-05-13 16:49:00,53.2,31.3,29.94,NW,315,2.9,6.0,43,0.00,CLR,,0.00,WeatherDisplay:10.37,2013-05-13 20:49:00,
2013-05-13 16:54:00,52.8,29.7,29.94,WNW,302,2.9,5.8,41,0.00,CLR,,0.00,WeatherDisplay:10.37,2013-05-13 20:54:00,
2013-05-13 16:59:00,52.2,31.5,29.94,WNW,288,1.8,3.5,45,0.00,CLR,,0.00,WeatherDisplay:10.37,2013-05-13 20:59:00,
2013-05-13 17:04:00,51.6,29.8,29.94,NW,309,0.9,3.5,43,0.00,CLR,,0.00,WeatherDisplay:10.37,2013-05-13 21:04:00,
2013-05-13 17:10:00,51.4,31.8,29.94,North,9,0.4,1.1,47,0.00,CLR,,0.00,WeatherDisplay:10.37,2013-05-13 21:10:00,
2013-05-13 17:15:00,51.3,31.7,29.94,North,355,0.8,2.3,47,0.00,CLR,,0.00,WeatherDisplay:10.37,2013-05-13 21:15:00,
2013-05-13 17:20:00,51.3,32.8,29.94,WSW,255,1.0,2.3,49,0.00,CLR,,0.00,WeatherDisplay:10.37,2013-05-13 21:20:00,
2013-05-13 17:25:00,51.1,31.0,29.94,WNW,287,0.0,2.3,46,0.00,CLR,,0.00,WeatherDisplay:10.37,2013-05-13 21:25:00,
2013-05-13 17:31:00,51.4,31.3,29.94,NNW,344,1.4,3.5,46,0.00,CLR,,0.00,WeatherDisplay:10.37,2013-05-13 21:31:00,
2013-05-13 17:36:00,51.4,31.3,29.94,NW,313,1.1,2.0,46,0.00,CLR,,0.00,WeatherDisplay:10.37,2013-05-13 21:36:00,
2013-05-13 17:41:00,50.8,29.6,29.94,NE,34,2.6,4.6,44,0.00,CLR,,0.00,WeatherDisplay:10.37,2013-05-13 21:41:00,
2013-05-13 17:46:00,50.7,29.6,29.94,NNW,340,2.7,5.8,44,0.00,CLR,,0.00,WeatherDisplay:10.37,2013-05-13 21:46:00,
2013-05-13 17:51:00,51.0,30.4,29.94,WNW,298,2.9,5.8,45,0.00,CLR,,0.00,WeatherDisplay:10.37,2013-05-13 21:51:00,
2013-05-13 17:57:00,51.1,29.9,29.94,NW,306,1.4,3.5,44,0.00,CLR,,0.00,WeatherDisplay:10.37,2013-05-13 21:57:00,
2013-05-13 18:02:00,51.1,28.2,29.94,WSW,255,2.5,4.6,41,0.00,CLR,,0.00,WeatherDisplay:10.37,2013-05-13 22:02:00,
2013-05-13 18:07:00,50.8,29.6,29.94,NW,305,3.7,9.0,44,0.00,CLR,,0.00,WeatherDisplay:10.37,2013-05-13 22:07:00,
2013-05-13 18:12:00,50.7,29.6,29.94,West,270,5.0,11.5,44,0.00,CLR,,0.00,WeatherDisplay:10.37,2013-05-13 22:12:00,
2013-05-13 18:17:00,50.4,28.7,29.94,WNW,286,2.3,11.5,43,0.00,CLR,,0.00,WeatherDisplay:10.37,2013-05-13 22:17:00,
2013-05-13 18:23:00,50.2,29.1,29.94,NW,305,3.3,6.0,44,0.00,CLR,,0.00,WeatherDisplay:10.37,2013-05-13 22:23:00,
2013-05-13 18:28:00,50.1,31.2,29.94,West,267,0.4,2.0,48,0.00,CLR,,0.00,WeatherDisplay:10.37,2013-05-13 22:28:00,
2013-05-13 18:33:00,50.4,29.8,29.95,WNW,297,2.8,5.0,45,0.00,CLR,,0.00,WeatherDisplay:10.37,2013-05-13 22:33:00,
2013-05-13 18:39:00,50.4,30.4,29.94,WSW,248,2.3,3.0,46,0.00,CLR,,0.00,WeatherDisplay:10.37,2013-05-13 22:39:00,
2013-05-13 18:44:00,50.1,29.6,29.95,WNW,286,2.0,3.5,45,0.00,CLR,,0.00,WeatherDisplay:10.37,2013-05-13 22:44:00,
2013-05-13 18:49:00,49.9,28.8,29.95,NNW,337,1.6,5.8,44,0.00,CLR,,0.00,WeatherDisplay:10.37,2013-05-13 22:49:00,
2013-05-13 18:54:00,49.8,30.4,29.95,NNE,20,2.2,9.2,47,0.00,CLR,,0.00,WeatherDisplay:10.37,2013-05-13 22:54:00,
2013-05-13 18:59:00,49.1,31.2,29.95,NNE,30,6.6,11.5,50,0.00,CLR,,0.00,WeatherDisplay:10.37,2013-05-13 22:59:00,
2013-05-13 19:04:00,48.5,33.1,29.96,NNE,28,3.1,4.6,55,0.00,CLR,,0.00,WeatherDisplay:10.37,2013-05-13 23:04:00,
2013-05-13 19:09:00,48.0,33.0,29.96,North,5,2.4,3.5,56,0.00,CLR,,0.00,WeatherDisplay:10.37,2013-05-13 23:09:00,
2013-05-13 19:14:00,47.7,32.3,29.97,WNW,300,0.8,4.0,55,0.00,CLR,,0.00,WeatherDisplay:10.37,2013-05-13 23:14:00,
2013-05-13 19:20:00,47.7,31.9,29.97,NW,321,0.0,0.0,54,0.00,CLR,,0.00,WeatherDisplay:10.37,2013-05-13 23:20:00,
2013-05-13 19:25:00,47.7,32.3,29.97,NW,321,0.0,1.1,55,0.00,CLR,,0.00,WeatherDisplay:10.37,2013-05-13 23:25:00,
2013-05-13 19:30:00,47.7,32.3,29.97,NW,321,0.1,1.1,55,0.00,CLR,,0.00,WeatherDisplay:10.37,2013-05-13 23:30:00,
2013-05-13 19:35:00,47.7,33.2,29.97,NW,321,0.0,0.0,57,0.00,CLR,,0.00,WeatherDisplay:10.37,2013-05-13 23:35:00,
2013-05-13 19:40:00,47.4,33.4,29.97,NW,321,0.0,0.0,58,0.00,CLR,,0.00,WeatherDisplay:10.37,2013-05-13 23:40:00,
2013-05-13 19:45:00,47.0,34.2,29.97,NW,321,0.0,0.0,61,0.00,CLR,,0.00,WeatherDisplay:10.37,2013-05-13 23:45:00,
2013-05-13 19:50:00,46.5,34.2,29.97,NW,321,0.0,0.0,62,0.00,CLR,,0.00,WeatherDisplay:10.37,2013-05-13 23:50:00,
2013-05-13 19:56:00,46.1,35.4,29.97,NW,321,0.0,0.0,66,0.00,CLR,,0.00,WeatherDisplay:10.37,2013-05-13 23:56:00,
2013-05-13 20:01:00,45.8,36.2,29.97,NW,321,0.0,0.0,69,0.00,CLR,,0.00,WeatherDisplay:10.37,2013-05-14 00:01:00,
2013-05-13 20:06:00,45.4,36.5,29.98,NW,321,0.0,0.0,71,0.00,CLR,,0.00,WeatherDisplay:10.37,2013-05-14 00:06:00,
2013-05-13 20:11:00,45.2,37.7,29.98,NW,321,0.0,0.0,75,0.00,CLR,,0.00,WeatherDisplay:10.37,2013-05-14 00:11:00,
2013-05-13 20:16:00,44.8,38.4,29.98,NW,321,0.0,0.0,78,0.00,CLR,,0.00,WeatherDisplay:10.37,2013-05-14 00:16:00,
2013-05-13 20:21:00,44.5,38.7,29.98,NW,321,0.0,0.0,80,0.00,CLR,,0.00,WeatherDisplay:10.37,2013-05-14 00:21:00,
2013-05-13 20:26:00,44.2,38.7,29.99,NW,321,0.0,0.0,81,0.00,CLR,,0.00,WeatherDisplay:10.37,2013-05-14 00:26:00,
2013-05-13 20:32:00,43.9,38.8,29.99,NW,321,0.0,0.0,82,0.00,CLR,,0.00,WeatherDisplay:10.37,2013-05-14 00:32:00,
2013-05-13 20:37:00,43.3,38.5,29.99,NW,321,0.0,0.0,83,0.00,CLR,,0.00,WeatherDisplay:10.37,2013-05-14 00:37:00,
2013-05-13 20:42:00,43.1,38.3,29.99,NW,321,0.0,0.0,83,0.00,CLR,,0.00,WeatherDisplay:10.37,2013-05-14 00:42:00,
2013-05-13 20:47:00,42.8,37.7,29.99,NW,321,0.0,0.0,82,0.00,CLR,,0.00,WeatherDisplay:10.37,2013-05-14 00:47:00,
2013-05-13 20:52:00,42.3,36.9,30.00,NW,321,0.0,0.0,81,0.00,CLR,,0.00,WeatherDisplay:10.37,2013-05-14 00:52:00,
2013-05-13 20:58:00,42.1,37.3,30.00,NW,321,0.0,0.0,83,0.00,CLR,,0.00,WeatherDisplay:10.37,2013-05-14 00:58:00,
2013-05-13 21:03:00,41.8,37.6,30.00,NW,321,0.0,0.0,85,0.00,CLR,,0.00,WeatherDisplay:10.37,2013-05-14 01:03:00,
2013-05-13 21:08:00,41.8,37.9,30.00,NW,321,0.0,0.0,86,0.00,CLR,,0.00,WeatherDisplay:10.37,2013-05-14 01:08:00,
2013-05-13 21:13:00,41.8,37.9,30.00,NW,321,0.0,0.0,86,0.00,CLR,,0.00,WeatherDisplay:10.37,2013-05-14 01:13:00,
2013-05-13 21:18:00,41.8,37.9,30.00,NW,321,0.0,0.0,86,0.00,CLR,,0.00,WeatherDisplay:10.37,2013-05-14 01:18:00,
2013-05-13 21:24:00,41.8,37.9,30.00,NW,321,0.0,0.0,86,0.00,CLR,,0.00,WeatherDisplay:10.37,2013-05-14 01:24:00,
2013-05-13 21:29:00,41.8,37.9,30.01,NW,321,0.0,0.0,86,0.00,CLR,,0.00,WeatherDisplay:10.37,2013-05-14 01:29:00,
2013-05-13 21:34:00,41.6,37.7,30.01,NW,321,0.0,0.0,86,0.00,CLR,,0.00,WeatherDisplay:10.37,2013-05-14 01:34:00,
2013-05-13 21:39:00,41.5,37.6,30.01,NW,321,0.0,0.0,86,0.00,CLR,,0.00,WeatherDisplay:10.37,2013-05-14 01:39:00,
2013-05-13 21:44:00,41.5,37.9,30.01,NW,321,0.0,0.0,87,0.00,CLR,,0.00,WeatherDisplay:10.37,2013-05-14 01:44:00,
2013-05-13 21:49:00,41.3,38.0,30.02,NW,321,0.0,0.0,88,0.00,CLR,,0.00,WeatherDisplay:10.37,2013-05-14 01:49:00,
2013-05-13 21:55:00,41.3,38.0,30.02,NW,321,0.0,0.0,88,0.00,CLR,,0.00,WeatherDisplay:10.37,2013-05-14 01:55:00,
2013-05-13 22:00:00,41.5,37.9,30.02,NW,321,0.0,1.1,87,0.00,CLR,,0.00,WeatherDisplay:10.37,2013-05-14 02:00:00,
2013-05-13 22:05:00,41.2,37.3,30.02,NW,321,0.0,0.0,86,0.00,CLR,,0.00,WeatherDisplay:10.37,2013-05-14 02:05:00,
2013-05-13 22:10:00,40.8,36.6,30.02,NW,321,0.0,0.0,85,0.00,CLR,,0.00,WeatherDisplay:10.37,2013-05-14 02:10:00,
2013-05-13 22:15:00,40.6,36.1,30.02,NW,321,0.0,0.0,84,0.00,CLR,,0.00,WeatherDisplay:10.37,2013-05-14 02:15:00,
2013-05-13 22:21:00,40.5,35.4,30.02,NW,321,0.0,0.0,82,0.00,CLR,,0.00,WeatherDisplay:10.37,2013-05-14 02:21:00,
2013-05-13 22:26:00,40.5,34.8,30.02,NW,321,0.0,0.0,80,0.00,CLR,,0.00,WeatherDisplay:10.37,2013-05-14 02:26:00,
2013-05-13 22:31:00,40.3,34.3,30.03,NW,321,0.0,0.0,79,0.00,CLR,,0.00,WeatherDisplay:10.37,2013-05-14 02:31:00,
2013-05-13 22:36:00,40.3,34.6,30.03,NW,321,0.0,0.0,80,0.00,CLR,,0.00,WeatherDisplay:10.37,2013-05-14 02:36:00,
2013-05-13 22:41:00,40.2,34.5,30.03,NW,321,0.0,0.0,80,0.00,CLR,,0.00,WeatherDisplay:10.37,2013-05-14 02:41:00,
2013-05-13 22:46:00,40.1,34.7,30.03,NW,321,0.0,0.0,81,0.00,CLR,,0.00,WeatherDisplay:10.37,2013-05-14 02:46:00,
2013-05-13 22:51:00,39.8,34.1,30.03,NW,321,0.0,0.0,80,0.00,CLR,,0.00,WeatherDisplay:10.37,2013-05-14 02:51:00,
2013-05-13 22:56:00,39.8,33.8,30.03,NW,321,0.0,0.0,79,0.00,CLR,,0.00,WeatherDisplay:10.37,2013-05-14 02:56:00,
2013-05-13 23:01:00,39.6,34.2,30.03,North,360,0.1,1.1,81,0.00,CLR,,0.00,WeatherDisplay:10.37,2013-05-14 03:01:00,
2013-05-13 23:07:00,39.5,34.2,30.02,North,360,0.0,0.0,81,0.00,CLR,,0.00,WeatherDisplay:10.37,2013-05-14 03:07:00,
2013-05-13 23:12:00,39.5,33.8,30.02,North,360,0.0,0.0,80,0.00,CLR,,0.00,WeatherDisplay:10.37,2013-05-14 03:12:00,
2013-05-13 23:17:00,39.6,32.7,30.02,North,360,1.0,1.1,76,0.00,CLR,,0.00,WeatherDisplay:10.37,2013-05-14 03:17:00,
2013-05-13 23:22:00,39.8,32.8,30.02,North,360,0.0,0.0,76,0.00,CLR,,0.00,WeatherDisplay:10.37,2013-05-14 03:22:00,
2013-05-13 23:28:00,39.8,32.8,30.02,NE,46,0.9,3.5,76,0.00,CLR,,0.00,WeatherDisplay:10.37,2013-05-14 03:28:00,
2013-05-13 23:33:00,39.8,33.2,30.02,NE,46,0.0,0.0,77,0.00,CLR,,0.00,WeatherDisplay:10.37,2013-05-14 03:33:00,
2013-05-13 23:38:00,39.6,32.7,30.02,NE,46,0.0,0.0,76,0.00,CLR,,0.00,WeatherDisplay:10.37,2013-05-14 03:38:00,
2013-05-13 23:43:00,39.5,33.2,30.03,NE,46,0.0,0.0,78,0.00,CLR,,0.00,WeatherDisplay:10.37,2013-05-14 03:43:00,
2013-05-13 23:48:00,38.9,33.9,30.03,NE,46,0.0,1.1,82,0.00,CLR,,0.00,WeatherDisplay:10.37,2013-05-14 03:48:00,
2013-05-13 23:54:00,38.5,34.7,30.03,NE,46,0.0,0.0,86,0.00,CLR,,0.00,WeatherDisplay:10.37,2013-05-14 03:54:00,
2013-05-13 23:59:00,38.2,35.2,30.03,NE,46,0.0,0.0,89,0.00,CLR,,0.00,WeatherDisplay:10.37,2013-05-14 03:59:00,